Time;durP1;ratioP1;P1;durP2;ratioP2;P2;SDS_P1;SDS_P2;PMS_P1;PMS_P2;Temp;Humidity;BMP_temperature;BMP_pressure;BME280_temperature;BME280_humidity;BME280_pressure;Samples;Min_cycle;Max_cycle;Signal;HPM_P1;HPM_P2
2023/12/03 00:09:37;;;;;;;9.75;8.07;;;;;;;22.37;44.68;100720.44;21087505;28;20202;-39
2023/12/03 00:19:41;;;;;;;8.38;6.72;;;;;;;22.38;44.64;100725.75;21088907;28;20350;-38
2023/12/03 00:29:42;;;;;;;7.70;6.90;;;;;;;22.35;45.25;100719.94;21085735;28;20582;-39
2023/12/03 00:39:45;;;;;;;9.63;6.65;;;;;;;22.42;45.13;100723.88;21076873;28;20237;-38
2023/12/03 00:49:47;;;;;;;24.15;17.38;;;;;;;22.46;45.05;100735.31;21062699;28;20225;-38
2023/12/03 00:59:51;;;;;;;54.60;36.55;;;;;;;22.45;44.85;100722.34;21068518;28;20225;-39
2023/12/03 01:09:53;;;;;;;67.57;46.17;;;;;;;22.46;45.28;100729.66;21060909;28;20648;-37
2023/12/03 01:19:56;;;;;;;86.65;60.97;;;;;;;22.54;44.99;100748.59;21075134;28;20222;-41
2023/12/03 01:29:58;;;;;;;95.70;67.40;;;;;;;22.48;45.35;100755.66;21064397;28;20198;-40
2023/12/03 01:40:02;;;;;;;120.45;85.30;;;;;;;22.52;44.93;100767.97;21072197;28;20521;-38
2023/12/03 01:50:06;;;;;;;146.13;100.75;;;;;;;22.57;44.80;100779.09;21068946;28;20226;-39
2023/12/03 02:00:10;;;;;;;165.77;114.05;;;;;;;22.53;45.17;100797.16;21080523;28;20222;-41
2023/12/03 02:10:12;;;;;;;171.23;121.30;;;;;;;22.59;44.90;100796.56;21061835;28;20199;-39
2023/12/03 02:20:15;;;;;;;184.18;126.55;;;;;;;22.59;44.91;100795.78;21071197;28;20507;-38
2023/12/03 02:30:18;;;;;;;225.52;154.93;;;;;;;22.61;44.87;100804.72;21075396;28;20199;-41
2023/12/03 02:40:20;;;;;;;245.77;177.05;;;;;;;22.55;45.08;100801.31;21080112;28;20305;-39
2023/12/03 02:50:23;;;;;;;250.63;180.35;;;;;;;22.45;45.09;100807.44;21072603;28;20222;-38
2023/12/03 03:00:25;;;;;;;249.80;179.50;;;;;;;22.39;45.13;100815.31;21086574;28;20214;-38
2023/12/03 03:10:28;;;;;;;233.65;165.25;;;;;;;22.32;44.98;100815.09;21088447;28;20255;-39
2023/12/03 03:20:30;;;;;;;222.60;158.10;;;;;;;22.31;45.14;100813.41;21084893;28;20653;-38
2023/12/03 03:30:34;;;;;;;216.27;148.75;;;;;;;22.26;44.84;100816.47;21085121;28;20202;-39
2023/12/03 03:40:35;;;;;;;199.73;143.70;;;;;;;22.23;45.04;100820.00;21076276;28;20222;-40
2023/12/03 03:50:38;;;;;;;194.43;135.00;;;;;;;22.19;45.13;100832.41;21071087;28;20220;-38
2023/12/03 04:00:40;;;;;;;175.70;124.90;;;;;;;22.17;45.27;100849.75;21074171;28;20225;-40
2023/12/03 04:10:44;;;;;;;159.88;116.40;;;;;;;22.14;45.30;100846.78;21080053;28;20560;-39
2023/12/03 04:20:46;;;;;;;149.95;109.80;;;;;;;22.13;45.01;100851.63;21085027;28;20222;-38
2023/12/03 04:30:49;;;;;;;145.95;104.45;;;;;;;22.05;45.45;100861.03;21113716;28;20497;-41
2023/12/03 04:40:53;;;;;;;133.18;95.18;;;;;;;22.07;45.23;100850.97;21096032;28;20232;-37
2023/12/03 04:50:56;;;;;;;125.57;92.70;;;;;;;22.08;45.09;100846.97;21106162;28;20230;-39
2023/12/03 05:00:57;;;;;;;119.05;85.13;;;;;;;22.10;44.65;100864.47;21082220;28;20227;-40
2023/12/03 05:11:04;;;;;;;112.72;79.10;;;;;;;22.04;45.16;100865.88;21066678;28;20191;-40
2023/12/03 05:21:06;;;;;;;104.03;75.78;;;;;;;22.01;45.09;100875.06;21065663;28;20221;-39
2023/12/03 05:31:10;;;;;;;96.10;69.53;;;;;;;21.99;45.09;100885.91;21092426;28;20203;-40
2023/12/03 05:41:12;;;;;;;93.00;68.63;;;;;;;21.99;45.15;100890.75;21083372;28;20228;-39
2023/12/03 05:51:15;;;;;;;89.95;64.05;;;;;;;21.96;45.29;100897.06;21083885;28;20218;-40
2023/12/03 06:01:22;;;;;;;83.80;59.50;;;;;;;21.96;45.31;100897.06;21085003;28;20240;-41
2023/12/03 06:11:26;;;;;;;78.10;57.33;;;;;;;21.95;45.34;100903.91;21084603;28;20715;-40
2023/12/03 06:21:28;;;;;;;72.07;53.33;;;;;;;21.94;44.89;100917.25;21090260;28;20226;-39
2023/12/03 06:31:32;;;;;;;65.65;49.13;;;;;;;21.96;45.17;100931.91;21082715;28;20229;-40
2023/12/03 06:41:34;;;;;;;63.72;45.30;;;;;;;21.94;44.66;100939.91;21065007;28;20561;-40
2023/12/03 06:51:37;;;;;;;58.28;42.28;;;;;;;21.89;45.31;100940.13;21051168;28;20230;-39
2023/12/03 07:01:39;;;;;;;56.28;40.22;;;;;;;21.86;45.12;100951.31;21054543;28;20627;-42
2023/12/03 07:11:42;;;;;;;52.13;37.95;;;;;;;21.87;44.98;100948.16;21051768;28;20202;-40
2023/12/03 07:21:43;;;;;;;48.45;34.67;;;;;;;21.85;45.44;100963.81;21054756;28;20217;-40
2023/12/03 07:31:47;;;;;;;50.15;36.03;;;;;;;21.82;44.83;100965.34;21050831;28;20190;-40
2023/12/03 07:41:52;;;;;;;42.42;31.90;;;;;;;21.83;45.27;100960.50;21066802;28;20229;-40
2023/12/03 07:51:55;;;;;;;37.60;29.48;;;;;;;21.83;44.91;100972.66;21079171;28;20220;-39
2023/12/03 08:01:58;;;;;;;37.60;28.50;;;;;;;21.80;45.08;100984.72;21069169;28;21571;-40
2023/12/03 08:12:01;;;;;;;35.30;23.83;;;;;;;21.73;41.27;101002.22;21070025;28;20198;-40
2023/12/03 08:22:03;;;;;;;41.35;27.60;;;;;;;21.85;43.88;100998.66;21084331;28;20640;-39
2023/12/03 08:32:07;;;;;;;35.53;24.50;;;;;;;21.99;44.31;101015.44;21091633;28;20195;-38
2023/12/03 08:42:09;;;;;;;30.98;22.67;;;;;;;22.09;44.52;101010.22;21081593;28;20667;-41
2023/12/03 08:52:12;;;;;;;27.08;19.90;;;;;;;22.19;44.47;101014.69;21073152;28;20522;-40
2023/12/03 09:02:14;;;;;;;50.88;34.83;;;;;;;22.07;43.89;101018.22;21088235;28;20218;-39
2023/12/03 09:12:17;;;;;;;40.60;27.75;;;;;;;22.21;44.05;101025.66;21075130;28;20221;-42
2023/12/03 09:22:19;;;;;;;38.40;26.40;;;;;;;22.38;43.82;101017.84;21045607;28;20664;-39
2023/12/03 09:32:22;;;;;;;32.35;22.90;;;;;;;22.50;44.37;101016.25;21083090;28;20827;-39
2023/12/03 09:42:27;;;;;;;25.88;19.60;;;;;;;22.54;43.91;101026.59;21085817;28;20236;-41
2023/12/03 09:52:34;;;;;;;27.77;20.92;;;;;;;22.65;44.28;101021.31;21096503;28;20233;-39
2023/12/03 10:02:36;;;;;;;26.23;18.48;;;;;;;22.80;44.35;101032.91;21082701;28;20233;-39
2023/12/03 10:12:41;;;;;;;25.15;18.10;;;;;;;22.89;44.57;101037.66;21094027;28;20212;-39
2023/12/03 10:22:43;;;;;;;22.45;16.15;;;;;;;22.89;45.04;101037.66;21074114;28;20221;-39
2023/12/03 10:32:47;;;;;;;21.13;16.20;;;;;;;22.95;44.81;101033.44;21090280;28;20680;-39
2023/12/03 10:42:49;;;;;;;21.75;15.43;;;;;;;23.01;45.27;101032.84;21090116;28;20225;-38
2023/12/03 10:52:53;;;;;;;21.40;14.65;;;;;;;23.00;45.43;101021.84;21096657;28;20228;-40
2023/12/03 11:03:01;;;;;;;19.35;14.55;;;;;;;22.97;44.86;101012.03;21044245;28;20214;-39
2023/12/03 11:13:04;;;;;;;50.55;35.47;;;;;;;23.01;45.20;101007.31;21068890;28;20204;-39
2023/12/03 11:23:16;;;;;;;91.32;59.15;;;;;;;23.06;47.93;101009.09;21034197;28;20225;-39
2023/12/03 11:33:22;;;;;;;93.95;63.55;;;;;;;23.21;48.47;100999.09;21054956;28;20206;-40
2023/12/03 11:43:25;;;;;;;91.15;59.15;;;;;;;23.17;48.01;100998.97;21059685;28;20226;-43
2023/12/03 11:53:37;;;;;;;71.47;49.38;;;;;;;23.12;47.65;100984.97;21047012;28;20230;-44
2023/12/03 12:03:40;;;;;;;69.43;46.40;;;;;;;23.25;47.41;100997.19;21030687;28;20226;-40
2023/12/03 12:13:45;;;;;;;103.90;66.32;;;;;;;23.24;47.91;100992.72;21040093;28;20210;-38
2023/12/03 12:23:48;;;;;;;144.65;84.75;;;;;;;23.44;47.33;100984.09;21037721;28;20646;-38
2023/12/03 12:33:51;;;;;;;149.45;89.50;;;;;;;23.44;47.07;100977.59;21059715;28;20209;-39
2023/12/03 12:43:56;;;;;;;132.43;81.60;;;;;;;23.38;46.51;100954.25;21027777;28;20242;-41
2023/12/03 12:54:00;;;;;;;122.85;76.47;;;;;;;23.34;46.41;100941.97;21084331;28;20862;-40
2023/12/03 13:04:06;;;;;;;104.13;70.43;;;;;;;23.48;46.27;100931.09;21065236;28;20621;-39
2023/12/03 13:14:09;;;;;;;162.48;108.40;;;;;;;23.38;47.02;100937.22;21068387;28;20308;-39
2023/12/03 13:24:11;;;;;;;149.38;102.70;;;;;;;23.31;46.23;100924.78;21058820;28;20303;-41
2023/12/03 13:34:14;;;;;;;147.43;102.38;;;;;;;23.28;46.79;100920.66;21064092;28;20233;-40
2023/12/03 13:44:16;;;;;;;134.60;94.18;;;;;;;23.29;46.89;100928.00;21039205;28;20226;-39
2023/12/03 13:54:19;;;;;;;133.82;91.78;;;;;;;23.26;46.39;100925.84;21070598;28;20226;-40
2023/12/03 14:04:21;;;;;;;117.40;80.43;;;;;;;23.23;46.08;100905.88;21067724;28;20219;-40
2023/12/03 14:14:24;;;;;;;105.95;75.68;;;;;;;23.23;46.13;100897.34;21060383;28;20203;-40
2023/12/03 14:24:26;;;;;;;117.88;83.10;;;;;;;23.26;45.94;100882.41;21060537;28;20214;-40
2023/12/03 14:34:29;;;;;;;168.30;116.97;;;;;;;23.20;46.00;100884.69;21040830;28;20498;-39
2023/12/03 14:44:31;;;;;;;170.63;118.00;;;;;;;23.20;45.83;100879.00;21049997;28;20246;-39
2023/12/03 14:54:35;;;;;;;155.40;111.28;;;;;;;23.14;45.96;100901.09;21090836;28;20232;-38
2023/12/03 15:04:37;;;;;;;138.73;99.07;;;;;;;23.14;45.95;100903.94;21088063;28;20322;-40
2023/12/03 15:14:41;;;;;;;122.47;85.57;;;;;;;22.73;44.90;100904.88;21078689;28;20195;-46
2023/12/03 15:24:43;;;;;;;118.10;83.88;;;;;;;22.92;44.80;100912.06;21073679;28;20228;-46
2023/12/03 15:34:46;;;;;;;109.35;77.55;;;;;;;22.96;45.45;100908.19;21068217;28;20203;-45
2023/12/03 15:44:48;;;;;;;101.25;72.97;;;;;;;22.98;45.19;100896.50;21070836;28;20230;-47
2023/12/03 15:54:51;;;;;;;93.47;65.63;;;;;;;22.95;45.34;100894.34;21027182;28;20530;-46
2023/12/03 16:04:55;;;;;;;134.82;87.75;;;;;;;23.01;46.13;100873.88;20973993;28;20227;-38
2023/12/03 16:15:00;;;;;;;158.18;108.88;;;;;;;22.91;45.26;100856.50;20988352;28;20191;-38
2023/12/03 16:25:02;;;;;;;166.25;112.32;;;;;;;22.85;45.49;100860.75;20992445;28;20261;-39
2023/12/03 16:35:07;;;;;;;155.32;108.35;;;;;;;22.82;45.23;100842.41;20990735;28;20210;-40
2023/12/03 16:45:10;;;;;;;146.38;101.22;;;;;;;22.85;45.33;100838.03;20993172;28;20634;-40
2023/12/03 16:55:14;;;;;;;266.00;175.40;;;;;;;22.94;45.46;100818.88;20997471;28;20229;-39
2023/12/03 17:05:16;;;;;;;252.73;170.60;;;;;;;22.93;45.62;100817.22;21040685;28;20214;-41
2023/12/03 17:15:20;;;;;;;247.93;165.98;;;;;;;22.95;45.67;100815.69;21078319;28;20579;-40
2023/12/03 17:25:22;;;;;;;232.75;154.32;;;;;;;22.89;45.38;100821.94;21079744;28;20568;-40
2023/12/03 17:35:27;;;;;;;226.18;150.23;;;;;;;22.92;45.44;100807.88;21086105;28;20198;-41
2023/12/03 17:45:29;;;;;;;317.90;224.98;;;;;;;22.94;45.68;100807.53;21055808;28;20266;-41
2023/12/03 17:55:33;;;;;;;303.05;212.80;;;;;;;22.96;45.69;100796.66;21045259;28;20261;-41
2023/12/03 18:05:34;;;;;;;291.38;202.07;;;;;;;22.93;45.73;100784.00;21028451;28;20526;-40
2023/12/03 18:15:38;;;;;;;266.88;186.82;;;;;;;22.94;45.68;100770.63;21046007;28;20201;-39
2023/12/03 18:25:39;;;;;;;404.75;280.40;;;;;;;22.96;45.40;100765.44;21063243;28;20214;-40
2023/12/03 18:35:43;;;;;;;422.58;298.85;;;;;;;22.97;45.52;100755.75;21066910;28;20199;-40
2023/12/03 18:45:46;;;;;;;406.33;283.10;;;;;;;22.97;45.71;100739.53;21067377;28;20264;-39
2023/12/03 18:55:51;;;;;;;370.95;263.85;;;;;;;22.94;45.61;100736.56;21066546;28;20237;-41
2023/12/03 19:05:53;;;;;;;392.50;280.33;;;;;;;22.88;45.24;100738.81;21029402;28;20226;-40
2023/12/03 19:15:58;;;;;;;354.27;251.48;;;;;;;22.93;45.99;100729.25;20905840;28;20229;-43
2023/12/03 19:26:00;;;;;;;327.88;234.23;;;;;;;23.01;45.82;100714.09;20953441;28;20276;-42
2023/12/03 19:36:03;;;;;;;300.85;211.75;;;;;;;22.97;45.77;100704.66;20964923;28;20205;-40
2023/12/03 19:46:10;;;;;;;293.17;198.65;;;;;;;22.92;46.27;100679.34;20996600;28;20234;-39
2023/12/03 19:56:13;;;;;;;276.25;185.93;;;;;;;22.94;45.88;100671.28;20983074;28;20235;-40
2023/12/03 20:06:15;;;;;;;261.00;172.73;;;;;;;22.95;46.24;100644.56;21010669;28;20618;-48
2023/12/03 20:16:18;;;;;;;243.93;163.85;;;;;;;22.95;45.85;100634.03;20987631;28;20201;-39
2023/12/03 20:26:21;;;;;;;231.35;154.30;;;;;;;22.94;46.18;100620.22;20996686;28;20225;-49
2023/12/03 20:36:24;;;;;;;219.70;145.95;;;;;;;22.96;46.65;100589.47;20972517;28;20192;-41
2023/12/03 20:46:25;;;;;;;201.70;134.55;;;;;;;22.91;46.20;100569.81;20992974;28;20237;-39
2023/12/03 20:56:29;;;;;;;194.23;128.63;;;;;;;22.90;45.87;100562.50;20980870;28;20235;-42
2023/12/03 21:06:32;;;;;;;182.85;121.93;;;;;;;22.92;45.84;100554.47;20994654;28;20289;-40
2023/12/03 21:16:35;;;;;;;166.48;113.05;;;;;;;22.86;46.56;100556.72;20952191;28;20207;-39
2023/12/03 21:26:37;;;;;;;159.50;108.03;;;;;;;22.83;46.36;100548.13;20970174;28;20518;-38
2023/12/03 21:36:40;;;;;;;156.02;102.32;;;;;;;22.84;46.63;100552.59;20984454;28;20209;-40
2023/12/03 21:46:42;;;;;;;147.95;99.05;;;;;;;22.76;46.80;100557.22;20977273;28;20301;-48
2023/12/03 21:56:45;;;;;;;134.57;91.55;;;;;;;22.75;46.81;100550.69;20964294;28;20277;-39
2023/12/03 22:06:46;;;;;;;123.00;84.90;;;;;;;22.64;46.95;100529.69;20964435;28;20258;-39
2023/12/03 22:16:50;;;;;;;116.35;78.72;;;;;;;22.56;47.08;100507.97;20965999;28;20213;-40
2023/12/03 22:26:51;;;;;;;113.30;76.93;;;;;;;22.49;47.24;100496.38;20987853;28;20622;-42
2023/12/03 22:36:54;;;;;;;104.25;70.80;;;;;;;22.43;47.20;100475.16;20991354;28;20203;-38
2023/12/03 22:46:56;;;;;;;101.55;68.63;;;;;;;22.35;47.42;100456.25;20955803;28;20226;-39
2023/12/03 22:56:59;;;;;;;96.65;64.53;;;;;;;22.29;47.66;100430.16;20877193;28;20236;-39
2023/12/03 23:07:01;;;;;;;93.03;62.78;;;;;;;22.27;48.05;100426.03;20905667;28;20619;-45
2023/12/03 23:17:04;;;;;;;91.43;60.85;;;;;;;22.24;48.31;100418.25;20913121;28;20199;-44
2023/12/03 23:27:06;;;;;;;83.78;56.25;;;;;;;22.21;48.10;100411.28;20910123;28;20241;-45
2023/12/03 23:37:09;;;;;;;74.55;51.63;;;;;;;22.18;48.08;100411.19;20904939;28;20199;-43
2023/12/03 23:47:12;;;;;;;73.25;50.13;;;;;;;22.14;48.15;100393.22;20908471;28;20227;-42
2023/12/03 23:57:15;;;;;;;69.07;47.03;;;;;;;22.08;48.12;100367.97;20979263;28;20220;-37
